createdAt,value
2019-03-28T00:01:26.707Z,41.50
2019-03-28T00:03:56.491Z,41.27
2019-03-28T00:06:24.741Z,39.03
2019-03-28T00:08:52.987Z,30.43
2019-03-28T00:11:21.450Z,38.57
2019-03-28T00:13:49.749Z,24.90
2019-03-28T00:16:18.004Z,32.83
2019-03-28T00:18:46.273Z,33.30
2019-03-28T00:21:14.526Z,35.37
2019-03-28T00:23:44.417Z,36.57
2019-03-28T00:26:13.024Z,38.13
2019-03-28T00:28:41.266Z,25.03
2019-03-28T00:31:09.687Z,33.87
2019-03-28T00:33:38.595Z,28.27
2019-03-28T00:36:07.163Z,34.40
2019-03-28T00:38:35.428Z,30.63
2019-03-28T00:41:03.792Z,35.77
2019-03-28T00:43:42.362Z,30.83
2019-03-28T00:46:10.603Z,35.27
2019-03-28T00:48:38.855Z,30.93
2019-03-28T00:51:07.099Z,40.47
2019-03-28T00:53:35.375Z,34.27
2019-03-28T00:56:03.639Z,34.90
2019-03-28T00:58:31.890Z,35.03
2019-03-28T01:01:00.324Z,24.93
2019-03-28T01:03:28.586Z,35.53
2019-03-28T01:05:58.951Z,35.57
2019-03-28T01:08:30.359Z,34.93
2019-03-28T01:10:58.589Z,35.03
2019-03-28T01:13:26.847Z,39.20
2019-03-28T01:15:55.778Z,35.77
2019-03-28T01:18:24.030Z,34.37
2019-03-28T01:20:52.309Z,27.77
2019-03-28T01:23:21.140Z,33.10
2019-03-28T01:25:49.608Z,35.33
2019-03-28T01:28:17.847Z,37.10
2019-03-28T01:30:46.255Z,28.67
2019-03-28T01:33:14.560Z,31.13
2019-03-28T01:35:42.822Z,39.77
2019-03-28T01:38:11.183Z,34.47
2019-03-28T01:40:39.419Z,37.37
2019-03-28T01:43:09.318Z,34.53
2019-03-28T01:45:37.647Z,37.40
2019-03-28T01:48:06.202Z,32.77
2019-03-28T01:50:34.816Z,39.27
2019-03-28T01:53:03.089Z,38.03
2019-03-28T01:55:31.351Z,33.53
2019-03-28T01:57:59.583Z,35.50
2019-03-28T02:00:29.535Z,33.87
2019-03-28T02:02:57.787Z,41.67
2019-03-28T02:05:26.027Z,35.27
2019-03-28T02:07:54.826Z,31.50
2019-03-28T02:10:23.174Z,37.37
2019-03-28T02:12:51.424Z,33.03
2019-03-28T02:15:19.776Z,44.33
2019-03-28T02:17:48.027Z,38.53
2019-03-28T02:20:16.282Z,34.60
2019-03-28T02:22:45.149Z,31.57
2019-03-28T02:25:13.779Z,39.10
2019-03-28T02:27:42.028Z,32.83
2019-03-28T02:30:10.328Z,26.37
2019-03-28T02:32:38.644Z,39.07
2019-03-28T02:35:07.782Z,33.27
2019-03-28T02:37:36.088Z,31.47
2019-03-28T02:40:06.367Z,28.00
2019-03-28T02:42:34.615Z,32.40
2019-03-28T02:45:03.739Z,31.53
2019-03-28T02:47:32.432Z,34.33
2019-03-28T02:50:00.664Z,49.13
2019-03-28T02:52:28.957Z,28.90
2019-03-28T02:54:57.904Z,36.23
2019-03-28T02:57:40.071Z,47.93
2019-03-28T02:59:56.502Z,42.40
2019-03-28T03:02:24.738Z,46.47
2019-03-28T03:04:52.983Z,37.67
2019-03-28T03:07:23.749Z,38.10
2019-03-28T03:09:57.645Z,40.33
2019-03-28T03:12:25.925Z,37.97
2019-03-28T03:14:54.553Z,41.57
2019-03-28T03:17:22.796Z,32.10
2019-03-28T03:19:51.488Z,50.17
2019-03-28T03:22:19.990Z,41.43
2019-03-28T03:24:48.243Z,46.93
2019-03-28T03:27:16.572Z,46.50
2019-03-28T03:29:44.937Z,30.97
2019-03-28T03:32:13.157Z,40.40
2019-03-28T03:34:41.419Z,39.20
2019-03-28T03:37:09.846Z,46.17
2019-03-28T03:39:38.108Z,32.37
2019-03-28T03:42:06.408Z,39.10
2019-03-28T03:44:35.041Z,41.77
2019-03-28T03:47:03.267Z,38.67
2019-03-28T03:49:31.520Z,40.60
2019-03-28T03:51:59.880Z,35.70
2019-03-28T03:54:28.138Z,40.57
2019-03-28T03:56:56.382Z,42.83
2019-03-28T03:59:24.631Z,47.83
2019-03-28T04:01:52.879Z,33.83
2019-03-28T04:04:21.940Z,39.03
2019-03-28T04:06:51.104Z,37.03
2019-03-28T04:09:19.417Z,45.33
2019-03-28T04:11:47.655Z,42.17
2019-03-28T04:14:16.008Z,46.03
2019-03-28T04:16:44.253Z,46.47
2019-03-28T04:19:12.496Z,38.77
2019-03-28T04:21:40.754Z,50.63
2019-03-28T04:24:08.999Z,44.70
2019-03-28T04:26:37.252Z,43.87
2019-03-28T04:29:24.948Z,53.43
2019-03-28T04:31:53.198Z,43.90
2019-03-28T04:34:21.435Z,42.23
2019-03-28T04:36:49.695Z,34.00
2019-03-28T04:39:17.980Z,42.77
2019-03-28T04:41:46.222Z,56.37
2019-03-28T04:44:14.519Z,49.67
2019-03-28T04:46:42.770Z,43.43
2019-03-28T04:49:11.192Z,36.80
2019-03-28T04:51:39.558Z,48.80
2019-03-28T04:54:09.802Z,40.03
2019-03-28T04:56:38.252Z,52.00
2019-03-28T04:59:06.704Z,44.63
2019-03-28T05:01:34.953Z,50.30
2019-03-28T05:04:03.191Z,53.10
2019-03-28T05:06:31.814Z,47.73
2019-03-28T05:09:00.057Z,55.93
2019-03-28T05:11:28.296Z,64.23
2019-03-28T05:13:56.787Z,54.27
2019-03-28T05:16:25.035Z,47.27
2019-03-28T05:18:53.279Z,48.67
2019-03-28T05:21:21.547Z,52.67
2019-03-28T05:23:49.795Z,50.67
2019-03-28T05:26:18.047Z,57.43
2019-03-28T05:28:56.880Z,50.97
2019-03-28T05:31:16.655Z,45.90
2019-03-28T05:33:44.909Z,53.73
2019-03-28T05:36:13.477Z,45.27
2019-03-28T05:38:41.719Z,52.13
2019-03-28T05:41:09.967Z,59.47
2019-03-28T05:43:38.231Z,45.90
2019-03-28T05:46:06.471Z,38.27
2019-03-28T05:48:34.710Z,58.83
2019-03-28T05:51:02.991Z,52.67
2019-03-28T05:53:31.247Z,50.80
2019-03-28T05:55:59.489Z,42.03
2019-03-28T05:58:27.868Z,51.33
2019-03-28T06:00:56.115Z,41.57
2019-03-28T06:03:26.267Z,43.33
2019-03-28T06:05:54.532Z,54.90
2019-03-28T06:08:23.606Z,53.33
2019-03-28T06:10:51.843Z,55.03
2019-03-28T06:13:20.439Z,52.50
2019-03-28T06:15:48.682Z,54.90
2019-03-28T06:18:16.938Z,47.97
2019-03-28T06:20:45.194Z,42.87
2019-03-28T06:23:13.561Z,40.33
2019-03-28T06:25:41.761Z,45.00
2019-03-28T06:28:10.500Z,47.73
2019-03-28T06:30:38.754Z,48.53
2019-03-28T06:33:07.012Z,64.80
2019-03-28T06:35:35.349Z,36.00
2019-03-28T06:38:03.583Z,52.63
2019-03-28T06:40:31.823Z,44.47
2019-03-28T06:43:00.248Z,44.80
2019-03-28T06:45:28.497Z,45.90
2019-03-28T06:47:56.742Z,46.20
2019-03-28T06:50:25.322Z,42.47
2019-03-28T06:52:53.556Z,33.97
2019-03-28T06:55:24.007Z,51.67
2019-03-28T06:57:52.046Z,43.47
2019-03-28T07:00:20.314Z,44.23
2019-03-28T07:02:48.537Z,49.33
2019-03-28T07:05:16.812Z,44.03
2019-03-28T07:08:04.480Z,40.57
2019-03-28T07:10:33.026Z,50.90
2019-03-28T07:13:01.268Z,39.33
2019-03-28T07:15:29.511Z,50.90
2019-03-28T07:17:57.876Z,55.37
2019-03-28T07:20:26.449Z,59.30
2019-03-28T07:22:54.955Z,48.80
2019-03-28T07:25:25.556Z,49.37
2019-03-28T07:27:53.446Z,57.30
2019-03-28T07:30:21.689Z,40.60
2019-03-28T07:32:49.941Z,44.00
2019-03-28T07:35:18.191Z,43.37
2019-03-28T07:37:46.437Z,51.33
2019-03-28T07:40:14.699Z,46.03
2019-03-28T07:42:42.947Z,37.27
2019-03-28T07:45:11.199Z,44.17
2019-03-28T07:47:39.551Z,47.47
2019-03-28T07:50:11.615Z,43.50
2019-03-28T07:52:40.191Z,35.63
2019-03-28T07:55:08.495Z,43.53
2019-03-28T07:57:36.751Z,40.33
2019-03-28T08:00:08.029Z,35.63
2019-03-28T08:02:36.482Z,48.73
2019-03-28T08:05:07.371Z,37.30
2019-03-28T08:07:44.859Z,45.23
2019-03-28T08:10:07.327Z,34.83
2019-03-28T08:12:35.967Z,33.53
2019-03-28T08:15:08.724Z,46.90
2019-03-28T08:17:37.036Z,40.93
2019-03-28T08:20:09.670Z,45.57
2019-03-28T08:22:37.931Z,49.27
2019-03-28T08:25:11.350Z,39.67
2019-03-28T08:27:37.690Z,46.63
2019-03-28T08:30:17.601Z,39.67
2019-03-28T08:32:39.838Z,40.63
2019-03-28T08:35:07.592Z,33.30
2019-03-28T08:37:37.065Z,29.90
2019-03-28T08:40:07.776Z,30.70
2019-03-28T08:42:36.025Z,37.77
2019-03-28T08:45:07.077Z,37.37
2019-03-28T08:47:35.900Z,39.73
2019-03-28T08:50:06.281Z,30.90
2019-03-28T08:52:34.527Z,44.07
2019-03-28T08:55:03.241Z,38.37
2019-03-28T08:57:31.491Z,26.83
2019-03-28T09:00:02.422Z,27.87
2019-03-28T09:02:35.171Z,45.83
2019-03-28T09:05:06.409Z,41.30
2019-03-28T09:07:34.663Z,39.00
2019-03-28T09:10:03.675Z,33.30
2019-03-28T09:12:34.981Z,35.07
2019-03-28T09:15:02.310Z,40.97
2019-03-28T09:17:30.572Z,35.77
2019-03-28T09:20:00.895Z,31.40
2019-03-28T09:22:29.143Z,38.23
2019-03-28T09:24:58.082Z,38.57
2019-03-28T09:27:26.339Z,35.63
2019-03-28T09:29:54.607Z,38.30
2019-03-28T09:32:22.879Z,32.90
2019-03-28T09:34:51.132Z,38.80
2019-03-28T09:37:20.994Z,33.33
2019-03-28T09:39:49.265Z,29.07
2019-03-28T09:42:20.379Z,27.53
2019-03-28T09:44:48.632Z,36.70
2019-03-28T09:47:18.570Z,24.57
2019-03-28T09:49:49.483Z,19.07
2019-03-28T09:52:20.060Z,21.63
2019-03-28T09:54:48.470Z,28.40
2019-03-28T09:57:16.718Z,24.27
2019-03-28T09:59:44.970Z,21.67
2019-03-28T10:02:13.494Z,30.53
2019-03-28T10:04:41.751Z,19.93
2019-03-28T10:07:09.999Z,22.83
2019-03-28T10:09:40.708Z,26.20
2019-03-28T10:12:09.031Z,25.10
2019-03-28T10:14:37.278Z,27.63
2019-03-28T10:17:06.251Z,34.50
2019-03-28T10:19:36.543Z,23.77
2019-03-28T10:22:04.467Z,31.93
2019-03-28T10:24:32.839Z,26.77
2019-03-28T10:27:01.091Z,24.00
2019-03-28T10:29:29.359Z,24.30
2019-03-28T10:31:59.254Z,23.57
2019-03-28T10:34:27.574Z,22.97
2019-03-28T10:36:55.819Z,25.47
2019-03-28T10:39:24.078Z,20.50
2019-03-28T10:41:52.318Z,19.67
2019-03-28T10:44:20.630Z,22.97
2019-03-28T10:46:48.902Z,17.83
2019-03-28T10:49:17.202Z,78.33
2019-03-28T10:51:45.454Z,17.13
2019-03-28T10:54:20.092Z,21.10
2019-03-28T10:56:51.614Z,18.83
2019-03-28T10:59:23.231Z,19.47
2019-03-28T11:01:50.114Z,17.40
2019-03-28T11:04:17.158Z,17.10
2019-03-28T11:06:45.423Z,16.33
2019-03-28T11:09:13.675Z,15.57
2019-03-28T11:11:41.927Z,15.57
2019-03-28T11:14:11.815Z,14.93
2019-03-28T11:16:51.049Z,17.47
2019-03-28T11:19:21.211Z,16.70
2019-03-28T11:21:51.103Z,14.80
2019-03-28T11:24:19.382Z,19.10
2019-03-28T11:26:49.581Z,21.03
2019-03-28T11:29:22.590Z,15.00
2019-03-28T11:31:52.481Z,15.47
2019-03-28T11:34:20.754Z,12.13
2019-03-28T11:36:49.342Z,41.90
2019-03-28T11:39:18.020Z,18.97
2019-03-28T11:41:46.267Z,17.60
2019-03-28T11:44:14.511Z,14.17
2019-03-28T11:46:42.780Z,14.57
2019-03-28T11:49:11.019Z,17.03
2019-03-28T11:51:39.276Z,13.63
2019-03-28T11:54:07.881Z,11.63
2019-03-28T11:56:36.150Z,13.43
2019-03-28T11:59:04.721Z,11.47
2019-03-28T12:01:33.455Z,15.50
2019-03-28T12:04:01.691Z,11.17
2019-03-28T12:06:29.936Z,13.57
2019-03-28T12:08:58.398Z,12.37
2019-03-28T12:11:26.739Z,13.77
2019-03-28T12:13:54.994Z,21.47
2019-03-28T12:16:23.291Z,14.83
2019-03-28T12:18:54.539Z,16.43
2019-03-28T12:21:22.792Z,14.43
2019-03-28T12:23:55.435Z,18.43
2019-03-28T12:26:23.677Z,15.17
2019-03-28T12:28:54.912Z,15.03
2019-03-28T12:31:25.354Z,26.80
2019-03-28T12:33:56.894Z,18.47
2019-03-28T12:36:25.161Z,10.53
2019-03-28T12:38:54.617Z,20.23
2019-03-28T12:41:23.016Z,25.60
2019-03-28T12:43:51.302Z,21.73
2019-03-28T12:46:19.922Z,18.33
2019-03-28T12:48:48.161Z,17.73
2019-03-28T12:51:16.403Z,16.07
2019-03-28T12:53:44.684Z,19.40
2019-03-28T12:56:15.310Z,10.63
2019-03-28T12:58:43.598Z,15.33
2019-03-28T13:01:11.837Z,12.93
2019-03-28T13:03:45.948Z,19.83
2019-03-28T13:06:13.148Z,15.80
2019-03-28T13:08:41.595Z,16.97
2019-03-28T13:11:09.811Z,19.37
2019-03-28T13:13:38.062Z,18.13
2019-03-28T13:16:06.349Z,21.77
2019-03-28T13:18:36.001Z,21.93
2019-03-28T13:21:13.496Z,10.10
2019-03-28T13:23:34.752Z,14.73
2019-03-28T13:26:03.275Z,14.40
2019-03-28T13:28:31.537Z,11.70
2019-03-28T13:30:59.810Z,14.80
2019-03-28T13:33:28.054Z,9.90
2019-03-28T13:35:56.299Z,14.60
2019-03-28T13:38:24.635Z,7.93
2019-03-28T13:40:52.879Z,13.73
2019-03-28T13:43:21.136Z,14.77
2019-03-28T13:45:49.390Z,12.93
2019-03-28T13:48:17.632Z,15.33
2019-03-28T13:50:45.885Z,11.33
2019-03-28T13:53:14.157Z,17.43
2019-03-28T13:55:42.440Z,14.20
2019-03-28T13:58:10.704Z,10.53
2019-03-28T14:00:38.955Z,15.00
2019-03-28T14:03:10.028Z,16.23
2019-03-28T14:05:38.271Z,16.13
2019-03-28T14:08:06.631Z,14.50
2019-03-28T14:10:34.870Z,16.40
2019-03-28T14:13:03.111Z,15.20
2019-03-28T14:15:31.582Z,15.37
2019-03-28T14:17:59.836Z,19.23
2019-03-28T14:20:28.078Z,12.13
2019-03-28T14:22:56.620Z,16.93
2019-03-28T14:25:25.285Z,17.97
2019-03-28T14:27:53.894Z,13.77
2019-03-28T14:30:22.216Z,20.87
2019-03-28T14:32:53.477Z,14.67
2019-03-28T14:35:20.439Z,16.93
2019-03-28T14:37:48.704Z,20.07
2019-03-28T14:40:16.964Z,19.27
2019-03-28T14:42:45.210Z,20.57
2019-03-28T14:45:13.752Z,24.80
2019-03-28T14:47:42.011Z,16.83
2019-03-28T14:50:10.487Z,17.63
2019-03-28T14:52:39.205Z,20.67
2019-03-28T14:55:07.458Z,22.33
2019-03-28T14:57:35.771Z,24.40
2019-03-28T15:00:13.007Z,19.93
2019-03-28T15:02:41.271Z,19.47
2019-03-28T15:05:11.710Z,18.73
2019-03-28T15:07:40.324Z,20.87
2019-03-28T15:10:08.573Z,17.77
2019-03-28T15:12:36.823Z,17.60
2019-03-28T15:15:06.866Z,22.40
2019-03-28T15:17:35.173Z,16.13
2019-03-28T15:20:04.867Z,17.80
2019-03-28T15:22:33.180Z,22.37
2019-03-28T15:25:01.438Z,23.83
2019-03-28T15:27:29.775Z,23.57
2019-03-28T15:29:58.509Z,16.40
2019-03-28T15:32:27.191Z,14.20
2019-03-28T15:34:55.799Z,15.53
2019-03-28T15:37:25.926Z,20.93
2019-03-28T15:39:54.169Z,14.30
2019-03-28T15:42:22.416Z,19.97
2019-03-28T15:44:50.773Z,14.37
2019-03-28T15:47:20.674Z,12.17
2019-03-28T15:49:50.345Z,16.00
2019-03-28T15:52:19.023Z,14.80
2019-03-28T15:54:47.806Z,12.50
2019-03-28T15:57:16.325Z,14.30
2019-03-28T15:59:49.825Z,16.07
2019-03-28T16:02:20.459Z,16.17
2019-03-28T16:04:49.969Z,13.67
2019-03-28T16:07:18.869Z,16.67
2019-03-28T16:09:48.542Z,15.93
2019-03-28T16:12:19.766Z,14.27
2019-03-28T16:14:48.433Z,14.77
2019-03-28T16:17:17.065Z,14.37
2019-03-28T16:19:49.352Z,19.60
2019-03-28T16:22:17.658Z,16.83
2019-03-28T16:24:46.610Z,15.10
2019-03-28T16:27:15.025Z,22.07
2019-03-28T16:29:43.479Z,12.40
2019-03-28T16:32:11.722Z,20.73
2019-03-28T16:34:43.174Z,16.30
2019-03-28T16:37:10.047Z,24.27
2019-03-28T16:39:38.285Z,18.70
2019-03-28T16:42:06.530Z,14.07
2019-03-28T16:44:34.804Z,12.50
2019-03-28T16:47:03.061Z,15.87
2019-03-28T16:49:31.303Z,12.93
2019-03-28T16:52:02.985Z,14.97
2019-03-28T16:54:31.246Z,17.27
2019-03-28T16:56:59.482Z,18.40
2019-03-28T16:59:27.826Z,13.70
2019-03-28T17:01:56.091Z,17.40
2019-03-28T17:04:24.352Z,19.27
2019-03-28T17:06:52.644Z,16.27
2019-03-28T17:09:21.451Z,18.77
2019-03-28T17:11:49.840Z,13.23
2019-03-28T17:14:18.372Z,12.13
2019-03-28T17:16:46.633Z,16.60
2019-03-28T17:19:14.903Z,17.17
2019-03-28T17:21:43.223Z,18.73
2019-03-28T17:24:11.602Z,18.53
2019-03-28T17:26:39.917Z,15.77
2019-03-28T17:29:08.475Z,18.10
2019-03-28T17:31:38.665Z,16.80
2019-03-28T17:34:06.927Z,14.50
2019-03-28T17:36:35.196Z,14.50
2019-03-28T17:39:05.215Z,13.07
2019-03-28T17:41:33.510Z,16.20
2019-03-28T17:44:01.905Z,16.67
2019-03-28T17:46:30.196Z,15.37
2019-03-28T17:48:58.831Z,17.90
2019-03-28T17:51:28.005Z,17.27
2019-03-28T17:53:56.394Z,19.93
2019-03-28T17:56:24.775Z,15.43
2019-03-28T17:58:53.096Z,16.50
2019-03-28T18:01:30.774Z,16.30
2019-03-28T18:03:59.138Z,15.77
2019-03-28T18:06:27.412Z,13.13
2019-03-28T18:08:55.660Z,18.57
2019-03-28T18:11:24.202Z,14.97
2019-03-28T18:13:54.265Z,16.30
2019-03-28T18:16:22.524Z,15.17
2019-03-28T18:18:52.426Z,14.53
2019-03-28T18:21:22.303Z,17.67
2019-03-28T18:23:50.612Z,15.53
2019-03-28T18:26:18.950Z,18.13
2019-03-28T18:28:47.203Z,15.63
2019-03-28T18:31:15.466Z,18.10
2019-03-28T18:33:45.251Z,16.90
2019-03-28T18:36:13.517Z,21.17
2019-03-28T18:38:41.763Z,17.47
2019-03-28T18:41:10.371Z,16.33
2019-03-28T18:43:38.623Z,13.90
2019-03-28T18:46:06.922Z,14.37
2019-03-28T18:48:36.569Z,16.37
2019-03-28T18:51:05.127Z,14.50
2019-03-28T18:53:33.367Z,17.43
2019-03-28T18:56:01.686Z,18.80
2019-03-28T18:58:29.927Z,16.80
2019-03-28T19:00:58.172Z,17.33
2019-03-28T19:03:26.781Z,14.73
2019-03-28T19:05:55.039Z,14.13
2019-03-28T19:08:23.285Z,18.90
2019-03-28T19:10:51.561Z,16.13
2019-03-28T19:13:19.824Z,19.23
2019-03-28T19:15:48.068Z,16.43
2019-03-28T19:18:16.582Z,16.23
2019-03-28T19:20:44.823Z,14.37
2019-03-28T19:23:13.099Z,12.20
2019-03-28T19:25:41.345Z,14.20
2019-03-28T19:28:10.914Z,18.00
2019-03-28T19:30:39.514Z,12.20
2019-03-28T19:33:07.837Z,16.67
2019-03-28T19:35:36.559Z,20.07
2019-03-28T19:38:05.144Z,16.13
2019-03-28T19:40:34.519Z,17.37
2019-03-28T19:43:02.730Z,14.47
2019-03-28T19:45:35.658Z,12.70
2019-03-28T19:48:03.219Z,14.97
2019-03-28T19:50:31.469Z,19.40
2019-03-28T19:52:59.712Z,22.33
2019-03-28T19:55:29.084Z,22.60
2019-03-28T19:57:57.697Z,23.00
2019-03-28T20:00:25.944Z,15.93
2019-03-28T20:02:54.520Z,25.10
2019-03-28T20:05:22.760Z,14.23
2019-03-28T20:07:51.003Z,17.43
2019-03-28T20:10:19.423Z,15.03
2019-03-28T20:12:49.321Z,29.47
2019-03-28T20:15:17.580Z,21.87
2019-03-28T20:17:47.954Z,18.37
2019-03-28T20:20:15.899Z,18.50
2019-03-28T20:22:45.081Z,19.40
2019-03-28T20:25:15.162Z,19.10
2019-03-28T20:27:47.653Z,21.63
2019-03-28T20:30:15.895Z,16.20
2019-03-28T20:32:44.514Z,14.23
2019-03-28T20:35:12.751Z,15.10
2019-03-28T20:37:41.724Z,16.63
2019-03-28T20:40:10.634Z,18.77
2019-03-28T20:42:38.904Z,19.47
2019-03-28T20:45:08.116Z,16.40
2019-03-28T20:47:36.518Z,19.63
2019-03-28T20:50:11.941Z,18.57
2019-03-28T20:52:40.187Z,22.47
2019-03-28T20:55:08.472Z,17.30
2019-03-28T20:57:36.724Z,17.97
2019-03-28T21:00:08.634Z,19.77
2019-03-28T21:02:37.461Z,17.63
2019-03-28T21:05:08.911Z,19.90
2019-03-28T21:07:37.170Z,21.67
2019-03-28T21:10:07.062Z,27.57
2019-03-28T21:12:35.315Z,20.63
2019-03-28T21:15:05.027Z,18.30
2019-03-28T21:17:34.104Z,12.30
2019-03-28T21:20:02.670Z,19.30
2019-03-28T21:22:30.927Z,22.13
2019-03-28T21:24:59.261Z,16.23
2019-03-28T21:27:27.546Z,18.10
2019-03-28T21:29:55.787Z,18.77
2019-03-28T21:32:24.185Z,21.10
2019-03-28T21:34:56.606Z,17.90
2019-03-28T21:37:25.054Z,21.57
2019-03-28T21:39:54.087Z,23.57
2019-03-28T21:42:22.318Z,20.27
2019-03-28T21:44:53.254Z,19.43
2019-03-28T21:47:33.185Z,15.13
2019-03-28T21:50:13.573Z,21.30
2019-03-28T21:52:43.810Z,20.77
2019-03-28T21:55:12.021Z,16.37
2019-03-28T21:57:42.487Z,19.43
2019-03-28T22:00:14.125Z,19.23
2019-03-28T22:02:43.695Z,16.90
2019-03-28T22:05:11.953Z,14.63
2019-03-28T22:07:40.418Z,26.80
2019-03-28T22:10:09.302Z,18.27
2019-03-28T22:12:37.561Z,14.70
2019-03-28T22:15:07.970Z,14.90
2019-03-28T22:17:42.507Z,18.20
2019-03-28T22:20:10.749Z,17.20
2019-03-28T22:22:39.452Z,11.80
2019-03-28T22:25:07.695Z,13.47
2019-03-28T22:27:35.973Z,25.83
2019-03-28T22:30:15.730Z,17.83
2019-03-28T22:32:43.973Z,17.93
2019-03-28T22:35:12.218Z,13.13
2019-03-28T22:37:40.595Z,15.03
2019-03-28T22:40:11.994Z,17.87
2019-03-28T22:42:40.272Z,18.17
2019-03-28T22:45:09.238Z,21.93
2019-03-28T22:47:40.803Z,20.30
2019-03-28T22:50:09.045Z,13.63
2019-03-28T22:52:37.650Z,17.77
2019-03-28T22:55:07.551Z,15.13
2019-03-28T22:57:35.778Z,15.07
2019-03-28T23:00:07.650Z,16.80
2019-03-28T23:02:41.550Z,18.23
2019-03-28T23:05:09.806Z,17.93
2019-03-28T23:07:38.165Z,17.97
2019-03-28T23:10:08.351Z,12.90
2019-03-28T23:12:36.598Z,25.40
2019-03-28T23:15:07.369Z,20.30
2019-03-28T23:17:35.611Z,19.57
2019-03-28T23:20:06.404Z,20.73
2019-03-28T23:22:34.654Z,28.00
2019-03-28T23:25:03.029Z,19.13
2019-03-28T23:27:31.264Z,19.70
2019-03-28T23:29:59.607Z,18.17
2019-03-28T23:32:27.842Z,19.93
2019-03-28T23:34:56.097Z,20.57
2019-03-28T23:37:25.324Z,15.60
2019-03-28T23:39:54.753Z,22.87
2019-03-28T23:42:22.992Z,15.77
2019-03-28T23:44:52.220Z,16.97
2019-03-28T23:47:20.455Z,15.67
2019-03-28T23:49:48.699Z,18.43
2019-03-28T23:52:17.314Z,19.97
2019-03-28T23:54:45.588Z,17.30
2019-03-28T23:57:13.831Z,17.77
2019-03-28T23:59:42.339Z,16.00
